Cripple Creek, VA (24322)

11:44 PM EDT on October 22, 2014 (GMT -0400)
Pine Mountain/Carsonville | Change Station
CLOSE
Current Station
Personal Weather Station
Location: Independence, VA, VA
Elevation: 2569 ft
Nearby Weather Stations

Elev 2569 ft 36.67 °N, 81.10 °W | Updated 1 minute ago

Overcast
Overcast
44.7 °F
Feels Like 45 °F
N
2.0
Wind Variable Wind from NE
Gusts 6.0 mph

Today
High -- | Low -- °F
--% Chance of Precip.
Yesterday
High -- | Low -- °F
Precip. -- in
7:38 AM 6:38 PM
Waning Crescent, 1% visible
Pressure 30.18 in
Visibility 10.0 miles
Clouds Overcast 2000 ft
Windchill 45 °F
Dew Point 40 °F
Humidity 83%
Rainfall 0.00 in
Snow Depth Not available.
UV 0 out of 12
Pollen .30 out of 12
Air Quality Not available.
Flu Activity Local Activity
METAR KMKJ 230335Z AUTO 30006KT 10SM OVC020 08/04 A3018 RMK AO2 T00790038

More Conditions Fewer Conditions

Pressure 30.18 in
Visibility 10.0 miles
Clouds Overcast 2000 ft
Windchill 45 °F
Dew Point 40 °F
Humidity 83%
Rainfall 0.00 in
Snow Depth Not available.
UV 0 out of 12
Pollen .30 out of 12
Air Quality Not available.
Flu Activity Local Activity
METAR KMKJ 230335Z AUTO 30006KT 10SM OVC020 08/04 A3018 RMK AO2 T00790038

More Conditions Fewer Conditions

10-Day Weather Forecast

Almanac

Astronomy

Oct. 22, 2014 Rise Set
Actual Time 7:38 AM EDT 6:38 PM EDT
Civil Twilight 7:12 AM EDT 7:05 PM EDT
Nautical Twilight 6:41 AM EDT 7:35 PM EDT
Astronomical Twilight 6:11 AM EDT 8:05 PM EDT
Moon 6:20 AM EDT (10/22) 6:03 PM EDT (10/22)
Length of Visible Light 11h 53m
Length of Day
11h 00m
Tomorrow will be 2m 11s shorter.
Waning Crescent, 1% of the Moon is Illuminated
Today
Waning Crescent
Oct 23
New
Oct 30
First Quarter
Nov 6
Full
Nov 14
Last Quarter

Today's Extremes

State Highs State Lows

Community

WunderPhotos

Upload Photos

1,764,130 photos uploaded!

Nearby

Snow Depth

Station Depth Elevation
No new snow has been reported.

Earthquake Activity

City Distance Mag. Time & Date
No recent earthquake activity has been reported nearby.
Minimum magnitude displayed is 2.5.

Coastal Water Temperatures

Place Temperature
No Stations Reporting

Nearby Weather Stations